Main page
METAR-TAF:

METAR-TAF

Airports :

Hagåtña, Guam, United States

Antonio B. Won Pat International Airport

latitude: 13-29N, longitude: 144-48E, elevation: 91 m

Current weather observation

The report was made 52 minutes ago, at 18:03 UTC
Wind 3 kt from the East/Southeast
Temperature 27°C
Humidity 94%
Pressure 1009 hPa
Visibility: 16.1 km
Few clouds at a height of 1700 ft
Scattered clouds at a height of 2600 ft
Broken clouds at a height of 3600 ft

METAR: PGUM 231803Z 12003KT 10SM FEW017 SCT026 BKN036 27/26 A2979 RMK AO2 T02670261

Time: 04:55 (18:55 UTC)

Forecast

The report was made 1 hour and 35 minutes ago, at 17:20 UTC
Forecast valid from 23 at 18 UTC to 24 at 24 UTC
Wind 8 kt from the South/Southeast
Visibility: 10 km
Scattered clouds at a height of 2000 ft
Broken clouds at a height of 14000 ft
showers in vicinity

TAF: PGUM 231720Z 2318/2424 15008KT P6SM VCSH SCT020 BKN140

Weather observations and forecasts of more than 4000 airports (METAR and TAF reports).

The available stations are represented by yellow and red dots on the map.

Hover mouse over dot to see the name of the station.

Then click to see weather observations and forecasts.

To change the map : click on the green buttons with a black cross to zoom in, on the green button with a dash to zoom out, or on the green arrows for adjacent maps.


METAR-TAF: